Time;durP1;ratioP1;P1;durP2;ratioP2;P2;SDS_P1;SDS_P2;PMS_P1;PMS_P2;Temp;Humidity;BMP_temperature;BMP_pressure;BME280_temperature;BME280_humidity;BME280_pressure;Samples;Min_cycle;Max_cycle;Signal;HPM_P1;HPM_P2
2022/08/26 09:33:08;;;;;;;8.25;4.70;;;25.00;99.90;;;;;;5265315;27;20494;-64
2022/08/26 09:35:45;;;;;;;11.32;5.10;;;25.10;99.90;;;;;;5266226;28;20093;-65
2022/08/26 09:38:32;;;;;;;10.48;5.68;;;25.20;99.90;;;;;;5265242;28;20012;-65
2022/08/26 09:41:07;;;;;;;10.32;4.82;;;25.20;99.90;;;;;;5265295;28;20035;-64
2022/08/26 09:43:38;;;;;;;10.32;4.72;;;25.30;99.90;;;;;;5265511;28;20521;-63
2022/08/26 09:46:13;;;;;;;9.88;4.35;;;25.20;99.90;;;;;;5265410;28;20033;-65
2022/08/26 09:48:45;;;;;;;6.72;3.58;;;25.10;99.90;;;;;;5269123;28;20020;-65
2022/08/26 09:51:39;;;;;;;8.63;4.07;;;25.10;99.90;;;;;;5258442;28;20047;-64
2022/08/26 09:54:25;;;;;;;7.25;4.25;;;25.10;99.90;;;;;;5179344;28;20417;-64
2022/08/26 09:57:18;;;;;;;5.78;3.80;;;25.10;99.90;;;;;;5178824;28;20036;-66
2022/08/26 09:59:49;;;;;;;7.97;4.05;;;25.10;99.90;;;;;;5178991;28;20434;-65
2022/08/26 10:02:42;;;;;;;6.57;4.30;;;25.00;99.90;;;;;;5180542;28;20065;-64
2022/08/26 10:05:28;;;;;;;10.43;4.18;;;25.10;99.90;;;;;;5179543;28;20077;-65
2022/08/26 10:08:26;;;;;;;10.40;4.55;;;25.10;99.90;;;;;;5178854;28;20194;-64
2022/08/26 10:11:11;;;;;;;6.35;3.40;;;25.20;99.90;;;;;;5178226;28;20046;-65
2022/08/26 10:13:47;;;;;;;7.68;3.92;;;25.20;99.90;;;;;;5175924;28;20074;-64
2022/08/26 10:16:21;;;;;;;6.80;4.30;;;25.00;99.90;;;;;;5179084;28;20029;-66
2022/08/26 10:19:08;;;;;;;7.60;3.75;;;25.20;99.90;;;;;;5177979;28;20042;-64
2022/08/26 10:21:59;;;;;;;11.77;4.03;;;25.20;99.90;;;;;;5178893;28;20034;-64
2022/08/26 10:24:40;;;;;;;9.48;5.03;;;25.30;99.90;;;;;;5181863;28;20926;-65
2022/08/26 10:27:36;;;;;;;9.48;4.95;;;25.30;99.90;;;;;;5178903;28;20034;-64
2022/08/26 10:30:22;;;;;;;12.68;6.63;;;25.40;99.90;;;;;;5183168;28;20495;-64
2022/08/26 10:33:11;;;;;;;8.70;6.93;;;25.20;99.90;;;;;;5277620;28;20048;-65
2022/08/26 10:36:47;;;;;;;12.15;7.40;;;25.30;99.90;;;;;;5279508;28;20486;-64
2022/08/26 10:39:03;;;;;;;;;;;25.10;99.90;;;;;;5270298;28;20031;-64
2022/08/26 10:41:42;;;;;;;11.00;5.78;;;25.20;99.90;;;;;;5282576;28;20439;-66
2022/08/26 10:44:19;;;;;;;8.90;5.53;;;25.30;99.90;;;;;;5256439;28;20035;-65
2022/08/26 10:47:17;;;;;;;13.70;6.10;;;25.60;99.90;;;;;;5257467;28;20027;-64
2022/08/26 10:49:58;;;;;;;9.65;6.55;;;25.40;99.90;;;;;;5265233;28;20555;-66
2022/08/26 10:52:53;;;;;;;13.00;5.40;;;25.50;99.90;;;;;;5257073;28;20041;-65
2022/08/26 10:55:44;;;;;;;14.32;4.35;;;25.50;99.90;;;;;;5263250;28;20035;-63
2022/08/26 10:58:30;;;;;;;7.28;3.58;;;25.70;99.90;;;;;;5260542;28;20116;-64
2022/08/26 11:04:20;;;;;;;7.60;3.60;;;25.70;99.90;;;;;;5262315;28;20021;-65
2022/08/26 11:07:29;;;;;;;5.65;4.00;;;25.70;99.90;;;;;;5262995;28;20051;-65
2022/08/26 11:10:27;;;;;;;8.05;4.05;;;25.70;99.90;;;;;;5265445;28;20724;-62
2022/08/26 11:13:03;;;;;;;11.45;3.40;;;25.30;99.90;;;;;;5251361;28;20040;-64
2022/08/26 11:15:37;;;;;;;5.60;3.33;;;25.60;99.90;;;;;;5264073;28;20031;-64
2022/08/26 11:18:11;;;;;;;12.25;2.63;;;25.80;99.90;;;;;;5259803;28;20021;-65
2022/08/26 11:20:44;;;;;;;6.57;3.42;;;25.90;99.90;;;;;;5264284;28;20127;-65
2022/08/26 11:23:21;;;;;;;6.47;3.33;;;26.20;99.90;;;;;;5259341;28;20075;-66
2022/08/26 11:25:58;;;;;;;6.53;3.30;;;25.70;99.90;;;;;;5265679;28;20726;-65
2022/08/26 11:28:39;;;;;;;6.95;3.08;;;25.90;99.90;;;;;;5262584;28;20032;-67
2022/08/26 11:31:31;;;;;;;7.15;2.40;;;25.90;99.90;;;;;;5251470;28;20055;-67
2022/08/26 11:34:11;;;;;;;9.10;2.60;;;26.00;99.90;;;;;;5257283;28;20040;-66
2022/08/26 11:36:55;;;;;;;5.40;2.65;;;25.90;99.90;;;;;;5261327;28;20083;-65
2022/08/26 11:39:47;;;;;;;4.72;2.60;;;25.80;99.90;;;;;;5258874;28;20548;-66
2022/08/26 11:42:39;;;;;;;7.63;2.88;;;26.00;99.90;;;;;;5258023;28;20016;-65
2022/08/26 11:45:22;;;;;;;4.00;2.53;;;25.70;99.90;;;;;;5261791;28;20507;-64
2022/08/26 11:47:53;;;;;;;8.63;2.90;;;25.30;99.90;;;;;;5271556;28;20020;-66
2022/08/26 11:50:27;;;;;;;4.28;2.63;;;25.90;99.90;;;;;;5272541;28;20030;-64
2022/08/26 11:53:03;;;;;;;7.88;2.88;;;25.90;99.90;;;;;;5271424;28;20031;-64
2022/08/26 11:55:40;;;;;;;4.82;2.58;;;26.00;99.90;;;;;;5271155;28;20028;-65
2022/08/26 11:58:13;;;;;;;5.40;2.05;;;25.80;99.90;;;;;;5266844;28;20111;-65
2022/08/26 12:00:58;;;;;;;6.78;3.08;;;26.00;99.90;;;;;;5257941;28;20040;-62
2022/08/26 12:03:31;;;;;;;5.30;2.70;;;25.80;99.90;;;;;;5257401;28;20484;-64
2022/08/26 12:06:10;;;;;;;6.55;2.75;;;25.80;99.90;;;;;;5260060;28;20033;-64
2022/08/26 12:08:43;;;;;;;7.80;3.00;;;25.80;99.90;;;;;;5265075;28;20016;-64
2022/08/26 12:11:27;;;;;;;8.90;3.08;;;26.00;99.90;;;;;;5261831;28;20107;-64
2022/08/26 12:14:07;;;;;;;9.35;2.60;;;25.90;99.90;;;;;;5259808;28;20029;-65
2022/08/26 12:16:39;;;;;;;5.28;2.72;;;25.00;99.90;;;;;;5267778;28;20360;-63
2022/08/26 12:19:26;;;;;;;6.60;2.38;;;25.80;99.90;;;;;;5264054;28;20013;-62
2022/08/26 12:22:25;;;;;;;4.93;2.00;;;26.00;99.90;;;;;;5243242;28;20511;-63
2022/08/26 12:24:59;;;;;;;5.43;2.58;;;25.80;99.90;;;;;;5252969;28;20052;-63
2022/08/26 12:27:39;;;;;;;8.18;3.15;;;25.80;99.90;;;;;;5257811;28;20036;-64
2022/08/26 12:30:19;;;;;;;7.50;2.55;;;25.70;99.90;;;;;;5262716;28;20084;-64
2022/08/26 12:33:12;;;;;;;6.53;2.40;;;25.80;99.90;;;;;;5253857;28;20515;-65
2022/08/26 12:35:43;;;;;;;5.80;2.17;;;26.00;99.90;;;;;;5256737;28;20016;-63
2022/08/26 12:38:14;;;;;;;6.03;2.53;;;26.10;99.90;;;;;;5253512;28;20064;-63
2022/08/26 12:40:46;;;;;;;6.45;2.28;;;26.10;99.90;;;;;;5267954;28;20446;-63
2022/08/26 12:43:43;;;;;;;5.43;2.60;;;26.00;99.90;;;;;;5260347;28;20029;-64
2022/08/26 12:46:25;;;;;;;6.60;2.33;;;25.90;99.90;;;;;;5251838;28;20169;-63
2022/08/26 12:49:00;;;;;;;4.85;2.45;;;25.90;99.90;;;;;;5263015;28;20063;-64
2022/08/26 12:51:34;;;;;;;6.47;2.40;;;25.80;99.90;;;;;;5251715;28;20024;-63
2022/08/26 12:54:06;;;;;;;7.72;2.38;;;25.80;99.90;;;;;;5247962;28;20363;-63
2022/08/26 12:56:38;;;;;;;4.43;1.92;;;25.90;99.90;;;;;;5260627;28;20024;-64
2022/08/26 13:03:34;;;;;;;20.27;4.07;;;28.00;99.90;;;;;;5339419;27;20600;-76
2022/08/26 13:06:29;;;;;;;18.85;3.17;;;29.30;99.90;;;;;;5328511;27;20076;-76
2022/08/26 13:09:06;;;;;;;15.27;3.75;;;29.60;99.90;;;;;;5328165;27;20030;-76
2022/08/26 13:11:40;;;;;;;38.88;21.63;;;29.70;99.90;;;;;;5328434;27;20023;-76
2022/08/26 13:14:15;;;;;;;17.48;6.43;;;29.20;99.90;;;;;;5328697;27;20079;-76
2022/08/26 13:16:46;;;;;;;13.82;3.90;;;28.50;99.90;;;;;;5328629;27;20026;-75
2022/08/26 13:19:20;;;;;;;15.57;3.95;;;28.50;99.90;;;;;;5313047;27;20023;-76
2022/08/26 13:21:54;;;;;;;14.93;3.45;;;28.90;99.90;;;;;;5306635;28;20039;-76
2022/08/26 13:24:53;;;;;;;15.52;3.83;;;28.80;99.90;;;;;;5306468;28;20031;-75
2022/08/26 13:27:25;;;;;;;12.75;3.78;;;28.60;99.90;;;;;;5302183;28;20865;-76
2022/08/26 13:29:57;;;;;;;10.77;3.25;;;28.50;99.90;;;;;;5306063;28;20016;-75
2022/08/26 13:32:28;;;;;;;14.60;3.17;;;28.10;99.90;;;;;;5306561;28;20107;-76
2022/08/26 13:34:59;;;;;;;14.75;3.53;;;28.20;99.90;;;;;;5306610;28;20115;-75
2022/08/26 13:37:30;;;;;;;12.23;3.47;;;27.80;99.90;;;;;;5306677;28;20024;-76
2022/08/26 13:40:06;;;;;;;16.33;4.22;;;27.80;99.90;;;;;;5306063;28;20035;-76
2022/08/26 13:42:37;;;;;;;15.77;4.63;;;28.00;99.90;;;;;;5305673;28;20085;-76
2022/08/26 13:45:09;;;;;;;13.65;3.13;;;28.20;99.90;;;;;;5304202;28;20030;-76
2022/08/26 13:47:40;;;;;;;17.75;3.50;;;28.70;99.90;;;;;;5304825;27;20015;-76
2022/08/26 13:50:11;;;;;;;16.08;3.55;;;28.70;99.90;;;;;;5307345;28;20362;-75
2022/08/26 13:52:42;;;;;;;15.43;3.97;;;28.20;99.90;;;;;;5307284;28;20424;-76
2022/08/26 13:55:13;;;;;;;19.67;4.20;;;28.70;99.90;;;;;;5307555;28;20027;-76
2022/08/26 13:57:44;;;;;;;14.48;3.60;;;28.70;99.90;;;;;;5307552;28;20466;-76
2022/08/26 14:00:15;;;;;;;14.70;3.72;;;28.80;99.90;;;;;;5307803;28;20027;-76
2022/08/26 14:02:46;;;;;;;16.67;3.33;;;28.40;99.90;;;;;;5307095;28;20074;-76
2022/08/26 14:05:17;;;;;;;11.55;3.28;;;28.20;99.90;;;;;;5307469;28;20384;-76
2022/08/26 14:07:48;;;;;;;22.65;3.75;;;28.10;99.90;;;;;;5307223;28;20031;-76
2022/08/26 14:10:19;;;;;;;14.70;3.10;;;28.00;99.90;;;;;;5307476;28;20412;-76
2022/08/26 14:12:50;;;;;;;15.93;3.67;;;28.00;99.90;;;;;;5303539;28;20123;-76
2022/08/26 14:15:21;;;;;;;18.48;3.55;;;28.20;99.90;;;;;;5293020;28;20081;-76
2022/08/26 14:17:52;;;;;;;12.45;3.22;;;28.10;99.90;;;;;;5292993;28;20421;-76
2022/08/26 14:20:27;;;;;;;21.92;19.73;;;28.30;99.90;;;;;;5292868;28;20031;-76
2022/08/26 14:22:59;;;;;;;482.50;44.70;;;28.10;99.90;;;;;;5293226;28;20031;-75
2022/08/26 14:25:32;;;;;;;535.92;66.65;;;28.00;99.90;;;;;;5292839;28;20024;-76
2022/08/26 14:28:03;;;;;;;1999.90;349.25;;;27.80;99.90;;;;;;5292844;28;20031;-76
2022/08/26 14:30:35;;;;;;;14.50;4.30;;;27.50;99.90;;;;;;5292560;28;20028;-75
2022/08/26 14:33:10;;;;;;;15.95;4.25;;;27.60;99.90;;;;;;5292417;28;20043;-75
2022/08/26 14:35:41;;;;;;;15.93;3.67;;;27.50;99.90;;;;;;5292249;28;20027;-76
2022/08/26 14:38:13;;;;;;;21.25;4.63;;;27.40;99.90;;;;;;5292475;28;20028;-75
2022/08/26 14:40:44;;;;;;;20.17;4.95;;;27.40;99.90;;;;;;5292603;28;20016;-76
2022/08/26 14:43:15;;;;;;;13.25;4.00;;;27.30;99.90;;;;;;5292508;28;20040;-75
2022/08/26 14:45:46;;;;;;;14.80;4.03;;;27.20;99.90;;;;;;5292148;28;20529;-75
2022/08/26 14:48:18;;;;;;;11.02;3.97;;;27.20;99.90;;;;;;5292258;28;20103;-75
2022/08/26 14:50:48;;;;;;;21.58;4.55;;;27.00;99.90;;;;;;5292457;28;20108;-76
2022/08/26 14:56:08;;;;;;;14.77;4.43;;;26.90;99.90;;;;;;5292273;28;20419;-76
2022/08/26 14:58:39;;;;;;;19.42;4.03;;;26.90;99.90;;;;;;5292149;28;20023;-76
2022/08/26 15:01:13;;;;;;;18.60;6.70;;;26.90;99.90;;;;;;5291886;28;20050;-75
2022/08/26 15:03:44;;;;;;;17.73;5.32;;;26.80;99.90;;;;;;5292446;28;20057;-76
2022/08/26 15:06:16;;;;;;;14.13;3.72;;;26.80;99.90;;;;;;5292307;28;20016;-76
2022/08/26 15:08:47;;;;;;;17.67;3.88;;;27.00;99.90;;;;;;5292482;28;20020;-74
2022/08/26 15:11:18;;;;;;;17.25;4.10;;;26.50;99.90;;;;;;5291965;28;20490;-75
2022/08/26 15:13:48;;;;;;;15.32;3.95;;;26.20;99.90;;;;;;5291857;28;20027;-75
2022/08/26 15:16:20;;;;;;;17.20;3.95;;;26.60;99.90;;;;;;5291749;28;20020;-75
2022/08/26 15:18:51;;;;;;;17.23;5.50;;;26.40;99.90;;;;;;5291902;28;20028;-75
2022/08/26 15:21:23;;;;;;;20.63;6.03;;;26.50;99.90;;;;;;5291919;28;20035;-76
2022/08/26 15:23:54;;;;;;;24.85;10.65;;;26.10;99.90;;;;;;5291883;28;20028;-75
2022/08/26 15:26:28;;;;;;;29.60;14.57;;;26.00;99.90;;;;;;5291149;28;20029;-76
2022/08/26 15:28:59;;;;;;;21.65;9.20;;;25.90;99.90;;;;;;5292015;28;20391;-76
2022/08/26 15:31:32;;;;;;;29.30;9.00;;;26.00;99.90;;;;;;5291668;28;20035;-76
2022/08/26 15:34:05;;;;;;;28.00;8.73;;;25.90;99.90;;;;;;5291578;28;20031;-76
2022/08/26 15:36:41;;;;;;;20.58;6.32;;;25.70;99.90;;;;;;5273186;28;20480;-76
2022/08/26 15:39:13;;;;;;;20.52;5.93;;;25.60;99.90;;;;;;5291519;28;20026;-76
2022/08/26 15:41:44;;;;;;;22.85;6.50;;;25.60;99.90;;;;;;5272730;28;20428;-76
2022/08/26 15:44:18;;;;;;;19.88;5.60;;;25.40;99.90;;;;;;5291445;28;20011;-76
2022/08/26 15:46:49;;;;;;;23.73;5.95;;;25.50;99.90;;;;;;5291251;28;20051;-76
2022/08/26 15:49:21;;;;;;;24.00;6.05;;;25.50;99.90;;;;;;5291550;28;20426;-76
2022/08/26 15:51:52;;;;;;;16.25;5.45;;;25.50;99.90;;;;;;5291334;28;20099;-76
2022/08/26 15:54:23;;;;;;;23.55;5.93;;;25.40;99.90;;;;;;5290893;28;20460;-76
2022/08/26 15:56:53;;;;;;;19.98;4.97;;;25.30;99.90;;;;;;5273127;28;20027;-76
2022/08/26 15:59:24;;;;;;;14.45;4.97;;;25.20;99.90;;;;;;5290915;28;20068;-76
2022/08/26 16:01:56;;;;;;;11.90;4.82;;;25.00;99.90;;;;;;5290593;28;20094;-76
2022/08/26 16:04:27;;;;;;;20.52;5.75;;;25.10;99.90;;;;;;5290847;28;20028;-76
2022/08/26 16:06:58;;;;;;;20.60;5.47;;;25.20;99.90;;;;;;5291008;28;20545;-77
2022/08/26 16:09:29;;;;;;;21.10;6.00;;;25.30;99.90;;;;;;5280607;28;20114;-76
2022/08/26 16:12:00;;;;;;;25.50;6.15;;;25.20;99.90;;;;;;5290783;28;20031;-76
2022/08/26 16:14:31;;;;;;;18.02;5.50;;;25.20;99.90;;;;;;5290803;28;20028;-76
2022/08/26 16:17:02;;;;;;;24.80;5.45;;;25.00;99.90;;;;;;5290794;28;20055;-76
2022/08/26 16:19:32;;;;;;;18.35;5.35;;;25.00;99.90;;;;;;5283310;28;20394;-76
2022/08/26 16:22:07;;;;;;;17.67;5.55;;;25.00;99.90;;;;;;5272279;28;20035;-76
2022/08/26 16:24:38;;;;;;;23.10;6.20;;;24.70;99.90;;;;;;5290641;28;20020;-76
2022/08/26 16:27:09;;;;;;;16.38;5.70;;;25.00;99.90;;;;;;5289916;28;20030;-76
2022/08/26 16:29:40;;;;;;;18.27;5.63;;;24.90;99.90;;;;;;5288600;28;20034;-76
2022/08/26 16:32:11;;;;;;;19.45;6.22;;;24.80;99.90;;;;;;5289224;28;20122;-76
2022/08/26 16:34:43;;;;;;;22.25;6.45;;;24.80;99.90;;;;;;5289320;28;20011;-76
2022/08/26 16:37:14;;;;;;;198.48;37.97;;;25.00;99.90;;;;;;5288940;28;20038;-77
2022/08/26 16:39:45;;;;;;;63.00;14.75;;;25.00;99.90;;;;;;5289277;28;20023;-76
2022/08/26 16:42:15;;;;;;;18.38;6.15;;;25.00;99.90;;;;;;5289281;28;20043;-77
2022/08/26 16:44:46;;;;;;;17.83;6.30;;;24.60;99.90;;;;;;5289323;28;20134;-76
2022/08/26 16:47:17;;;;;;;18.25;5.20;;;24.50;99.90;;;;;;5289192;28;20028;-76
2022/08/26 16:49:48;;;;;;;12.77;5.32;;;24.50;99.90;;;;;;5289277;28;20016;-76
2022/08/26 16:52:19;;;;;;;9.07;4.28;;;24.40;99.90;;;;;;5289566;28;20027;-76
2022/08/26 16:54:51;;;;;;;8.90;4.45;;;24.20;99.90;;;;;;5289155;28;20451;-77
2022/08/26 16:57:22;;;;;;;9.75;4.53;;;24.30;99.90;;;;;;5289949;28;20070;-76
2022/08/26 16:59:53;;;;;;;10.75;4.85;;;24.30;99.90;;;;;;5290178;28;20549;-76
2022/08/26 17:02:24;;;;;;;10.10;4.93;;;24.20;99.90;;;;;;5288500;28;20422;-77
2022/08/26 17:04:55;;;;;;;9.75;4.63;;;24.20;99.90;;;;;;5288405;28;20102;-78
2022/08/26 17:07:25;;;;;;;13.27;4.68;;;23.90;99.90;;;;;;5290182;28;20035;-76
2022/08/26 17:09:56;;;;;;;14.07;5.45;;;23.80;99.90;;;;;;5289498;28;20088;-75
2022/08/26 17:12:27;;;;;;;11.48;5.70;;;23.20;99.90;;;;;;5288208;28;20024;-74
2022/08/26 17:14:58;;;;;;;18.77;6.07;;;23.20;99.90;;;;;;5301930;28;20020;-76
2022/08/26 17:17:29;;;;;;;16.40;6.47;;;23.10;99.90;;;;;;5282346;28;20111;-74
2022/08/26 17:20:04;;;;;;;12.25;6.20;;;23.10;99.90;;;;;;5291704;28;20470;-74
2022/08/26 17:22:46;;;;;;;12.45;6.68;;;23.00;99.90;;;;;;5282790;28;20130;-75
2022/08/26 17:25:22;;;;;;;13.45;6.40;;;23.00;99.90;;;;;;5281144;28;20463;-75
2022/08/26 17:27:54;;;;;;;12.80;6.95;;;22.90;99.90;;;;;;5288620;28;20034;-76
2022/08/26 17:30:24;;;;;;;15.88;7.32;;;22.70;99.90;;;;;;5289233;28;20493;-74
2022/08/26 17:32:56;;;;;;;17.83;7.97;;;22.90;99.90;;;;;;5289163;28;20023;-76
2022/08/26 17:35:27;;;;;;;14.40;6.82;;;22.60;99.90;;;;;;5281863;28;20031;-74
2022/08/26 17:37:58;;;;;;;16.92;6.32;;;22.70;99.90;;;;;;5288970;28;20483;-76
2022/08/26 17:40:30;;;;;;;13.77;7.05;;;22.70;99.90;;;;;;5288886;28;20028;-77
2022/08/26 17:43:01;;;;;;;12.50;7.30;;;22.60;99.90;;;;;;5289107;28;20032;-76
2022/08/26 17:45:32;;;;;;;15.27;7.65;;;22.70;99.90;;;;;;5282427;28;20030;-75
2022/08/26 17:48:03;;;;;;;13.55;7.57;;;22.60;99.90;;;;;;5289092;28;20042;-73
2022/08/26 17:50:34;;;;;;;16.40;7.10;;;22.70;99.90;;;;;;5292908;28;20031;-74
2022/08/26 17:53:05;;;;;;;16.92;7.53;;;22.70;99.90;;;;;;5293068;28;20028;-74
2022/08/26 17:55:36;;;;;;;12.07;7.38;;;22.60;99.90;;;;;;5293261;28;20356;-75
2022/08/26 17:58:07;;;;;;;12.38;7.15;;;22.40;99.90;;;;;;5293148;28;20028;-74
2022/08/26 18:00:37;;;;;;;16.05;7.20;;;22.50;99.90;;;;;;5293142;28;20024;-73
2022/08/26 18:03:08;;;;;;;17.40;8.13;;;22.20;99.90;;;;;;5292364;28;20059;-76
2022/08/26 18:05:41;;;;;;;18.63;8.27;;;22.30;99.90;;;;;;5274177;28;20028;-73
2022/08/26 18:08:11;;;;;;;14.93;8.32;;;22.40;99.90;;;;;;5273943;28;20474;-74
2022/08/26 18:10:43;;;;;;;15.93;8.05;;;22.30;99.90;;;;;;5273985;28;20020;-74
2022/08/26 18:13:14;;;;;;;14.93;7.70;;;22.30;99.90;;;;;;5292675;28;20031;-74
2022/08/26 18:15:46;;;;;;;17.20;7.80;;;22.40;99.90;;;;;;5292570;28;20020;-74
2022/08/26 18:18:17;;;;;;;12.40;7.68;;;22.40;99.90;;;;;;5292483;28;20471;-76
2022/08/26 18:20:47;;;;;;;34.15;7.57;;;22.40;99.90;;;;;;5274047;28;20095;-75
2022/08/26 18:23:18;;;;;;;14.88;6.95;;;22.40;99.90;;;;;;5292234;28;20039;-75
2022/08/26 18:25:49;;;;;;;14.38;7.63;;;22.20;99.90;;;;;;5292148;28;20024;-76
2022/08/26 18:28:20;;;;;;;12.80;7.30;;;22.30;99.90;;;;;;5292183;28;20024;-74
2022/08/26 18:30:51;;;;;;;15.75;7.68;;;22.30;99.90;;;;;;5292530;28;20528;-74
2022/08/26 18:33:22;;;;;;;14.60;8.32;;;22.10;99.90;;;;;;5292627;28;20024;-73
2022/08/26 18:35:53;;;;;;;12.82;7.65;;;22.00;99.90;;;;;;5292496;28;20072;-74
2022/08/26 18:38:24;;;;;;;17.45;8.05;;;22.10;99.90;;;;;;5292266;28;20028;-75
2022/08/26 18:40:55;;;;;;;14.57;8.15;;;22.00;99.90;;;;;;5292284;28;20347;-74
2022/08/26 18:43:26;;;;;;;11.45;8.00;;;22.10;99.90;;;;;;5292156;28;20402;-74
2022/08/26 18:46:05;;;;;;;12.13;7.80;;;22.10;99.90;;;;;;5292098;28;20039;-73
2022/08/26 18:48:38;;;;;;;13.77;8.00;;;22.20;99.90;;;;;;5290022;28;20106;-74
2022/08/26 18:51:16;;;;;;;12.05;8.05;;;22.10;99.90;;;;;;5292595;28;20153;-75
2022/08/26 18:53:47;;;;;;;13.77;7.60;;;22.10;99.90;;;;;;5292321;28;20028;-75
2022/08/26 18:56:18;;;;;;;13.10;7.18;;;22.10;99.90;;;;;;5291827;28;20019;-74
2022/08/26 18:58:49;;;;;;;11.65;7.70;;;22.10;99.90;;;;;;5286053;28;20016;-75
2022/08/26 19:01:20;;;;;;;18.42;7.80;;;22.10;99.90;;;;;;5289310;28;20052;-75
2022/08/26 19:03:51;;;;;;;12.48;7.57;;;22.00;99.90;;;;;;5291323;28;20035;-74
2022/08/26 19:06:23;;;;;;;17.27;7.63;;;21.90;99.90;;;;;;5291598;28;20023;-74
2022/08/26 19:08:54;;;;;;;16.77;7.63;;;22.00;99.90;;;;;;5291471;28;20030;-74
2022/08/26 19:11:26;;;;;;;13.63;7.45;;;22.10;99.90;;;;;;5291100;28;20023;-74
2022/08/26 19:13:57;;;;;;;11.38;6.43;;;21.90;99.90;;;;;;5291162;28;20110;-74
2022/08/26 19:16:28;;;;;;;16.83;6.95;;;22.00;99.90;;;;;;5291176;28;20157;-74
2022/08/26 19:19:00;;;;;;;17.33;7.07;;;21.90;99.90;;;;;;5289451;28;20098;-76
2022/08/26 19:21:32;;;;;;;11.32;6.82;;;21.90;99.90;;;;;;5289259;28;20031;-74
2022/08/26 19:24:08;;;;;;;20.73;8.02;;;21.90;99.90;;;;;;5290513;28;20130;-76
2022/08/26 19:26:38;;;;;;;13.25;7.50;;;21.80;99.90;;;;;;5287636;28;20038;-74
2022/08/26 19:29:10;;;;;;;14.38;7.15;;;21.90;99.90;;;;;;5280521;27;20028;-76
2022/08/26 19:31:41;;;;;;;9.13;6.60;;;21.80;99.90;;;;;;5285014;28;20105;-74
2022/08/26 19:34:12;;;;;;;13.35;6.47;;;21.60;99.90;;;;;;5290662;28;20020;-74
2022/08/26 19:36:43;;;;;;;13.10;6.63;;;21.70;99.90;;;;;;5290553;28;20026;-74
2022/08/26 19:39:14;;;;;;;14.45;7.13;;;21.70;99.90;;;;;;5290660;28;20024;-75
2022/08/26 19:41:46;;;;;;;12.05;6.88;;;21.70;99.90;;;;;;5290331;28;20040;-74
2022/08/26 19:47:10;;;;;;;11.90;7.30;;;21.60;99.90;;;;;;5276570;28;20065;-75
2022/08/26 19:49:41;;;;;;;13.93;7.68;;;21.70;99.90;;;;;;5278938;28;20032;-73
2022/08/26 19:52:12;;;;;;;11.93;6.65;;;21.60;99.90;;;;;;5284261;28;20044;-76
2022/08/26 19:54:43;;;;;;;12.05;7.05;;;21.70;99.90;;;;;;5289965;28;20030;-73
2022/08/26 19:57:15;;;;;;;13.68;7.25;;;21.70;99.90;;;;;;5290664;28;20024;-74
2022/08/26 19:59:46;;;;;;;15.15;6.65;;;21.50;99.90;;;;;;5290343;28;20031;-76
2022/08/26 20:02:17;;;;;;;9.60;6.90;;;21.60;99.90;;;;;;5290362;28;20048;-76
2022/08/26 20:04:48;;;;;;;16.65;6.90;;;21.60;99.90;;;;;;5271056;28;20130;-75
2022/08/26 20:07:19;;;;;;;14.30;7.40;;;21.50;99.90;;;;;;5290442;28;20098;-77
2022/08/26 20:09:50;;;;;;;13.18;6.53;;;21.60;99.90;;;;;;5289875;28;20015;-75
2022/08/26 20:12:21;;;;;;;13.40;6.97;;;21.50;99.90;;;;;;5289266;28;20063;-76
2022/08/26 20:14:53;;;;;;;13.57;6.85;;;21.50;99.90;;;;;;5289359;28;20027;-73
2022/08/26 20:17:24;;;;;;;14.30;6.85;;;21.60;99.90;;;;;;5289477;28;20366;-75
2022/08/26 20:22:45;;;;;;;13.15;6.32;;;21.50;99.90;;;;;;5289780;28;20092;-76
2022/08/26 20:25:15;;;;;;;12.38;6.75;;;21.50;99.90;;;;;;5290247;28;20359;-75
2022/08/26 20:27:46;;;;;;;13.63;6.40;;;21.50;99.90;;;;;;5289527;28;20056;-75
2022/08/26 20:30:17;;;;;;;11.95;6.00;;;21.50;99.90;;;;;;5290070;28;20047;-74
2022/08/26 20:32:48;;;;;;;13.35;6.18;;;21.30;99.90;;;;;;5289786;28;20031;-74
2022/08/26 20:35:19;;;;;;;10.88;6.68;;;21.20;99.90;;;;;;5289540;28;20482;-76
2022/08/26 20:37:50;;;;;;;14.27;7.00;;;21.10;99.90;;;;;;5289554;28;20032;-76
2022/08/26 20:40:22;;;;;;;18.17;6.50;;;20.90;99.90;;;;;;5289802;28;20034;-76
2022/08/26 20:42:53;;;;;;;10.90;6.63;;;21.00;99.90;;;;;;5289512;28;20031;-76
2022/08/26 20:45:25;;;;;;;11.75;6.32;;;21.10;99.90;;;;;;5289204;28;20421;-76
2022/08/26 20:47:56;;;;;;;12.43;6.10;;;21.20;99.90;;;;;;5282287;28;20036;-74
2022/08/26 20:50:27;;;;;;;9.52;5.88;;;20.90;99.90;;;;;;5286013;28;20022;-73
2022/08/26 20:52:59;;;;;;;14.10;6.30;;;21.00;99.90;;;;;;5289349;28;20393;-74
2022/08/26 20:55:30;;;;;;;14.93;7.10;;;20.90;99.90;;;;;;5289111;28;20048;-73
2022/08/26 20:58:01;;;;;;;15.82;6.82;;;20.70;99.90;;;;;;5289549;28;20023;-73
2022/08/26 21:00:32;;;;;;;11.85;7.35;;;20.90;99.90;;;;;;5289366;28;20482;-75
2022/08/26 21:03:03;;;;;;;11.25;6.07;;;20.90;99.90;;;;;;5270886;28;20060;-74
2022/08/26 21:05:34;;;;;;;16.83;5.90;;;20.80;99.90;;;;;;5271024;28;20023;-74
2022/08/26 21:08:06;;;;;;;11.43;5.68;;;20.90;99.90;;;;;;5289078;28;20028;-75
2022/08/26 21:10:36;;;;;;;18.98;7.00;;;20.80;99.90;;;;;;5286602;28;20128;-74
2022/08/26 21:13:07;;;;;;;11.20;6.20;;;20.60;99.90;;;;;;5274987;28;20035;-75
2022/08/26 21:15:38;;;;;;;15.65;5.85;;;20.80;99.90;;;;;;5289094;28;20497;-75
2022/08/26 21:18:09;;;;;;;17.00;5.45;;;20.90;99.90;;;;;;5289294;28;20027;-74
2022/08/26 21:20:40;;;;;;;16.67;5.80;;;20.80;99.90;;;;;;5288755;28;20948;-75
2022/08/26 21:23:12;;;;;;;12.90;5.80;;;20.60;99.90;;;;;;5289882;28;20101;-74
2022/08/26 21:25:45;;;;;;;20.90;6.25;;;20.70;99.90;;;;;;5293915;28;20035;-73
2022/08/26 21:28:16;;;;;;;13.68;6.28;;;20.70;99.90;;;;;;5293430;28;20383;-73
2022/08/26 21:30:47;;;;;;;16.83;5.78;;;20.70;99.90;;;;;;5285760;28;20011;-75
2022/08/26 21:33:17;;;;;;;20.85;5.90;;;20.60;99.90;;;;;;5292980;28;20090;-75
2022/08/26 21:35:53;;;;;;;15.18;5.72;;;20.60;99.90;;;;;;5292067;28;20035;-74
2022/08/26 21:38:24;;;;;;;19.63;5.68;;;20.70;99.90;;;;;;5292852;28;20020;-75
2022/08/26 21:41:09;;;;;;;23.55;5.50;;;20.60;99.90;;;;;;5293024;28;20541;-73
2022/08/26 21:43:41;;;;;;;12.38;5.70;;;20.70;99.90;;;;;;5293019;28;20032;-73
2022/08/26 21:46:15;;;;;;;16.42;6.05;;;20.60;99.90;;;;;;5292873;28;20026;-73
2022/08/26 21:48:52;;;;;;;14.32;5.90;;;20.70;99.90;;;;;;5292870;28;20027;-73
2022/08/26 21:51:25;;;;;;;10.20;5.68;;;20.40;99.90;;;;;;5292745;28;20050;-74
2022/08/26 21:53:57;;;;;;;16.58;5.75;;;20.50;99.90;;;;;;5293177;28;20023;-74
2022/08/26 21:56:31;;;;;;;12.40;5.20;;;20.40;99.90;;;;;;5292376;28;20023;-75
2022/08/26 21:59:02;;;;;;;14.82;5.85;;;20.40;99.90;;;;;;5292745;28;20102;-74
2022/08/26 22:01:34;;;;;;;11.60;5.10;;;20.50;99.90;;;;;;5292137;28;20551;-74
2022/08/26 22:04:07;;;;;;;12.30;4.97;;;20.60;99.90;;;;;;5292692;28;20067;-73
2022/08/26 22:06:45;;;;;;;9.73;5.10;;;20.60;99.90;;;;;;5292386;28;20547;-75
2022/08/26 22:09:19;;;;;;;10.75;5.15;;;20.50;99.90;;;;;;5292295;28;20554;-76
2022/08/26 22:11:51;;;;;;;9.20;5.20;;;20.30;99.90;;;;;;5292292;28;20102;-75
2022/08/26 22:14:25;;;;;;;11.65;5.82;;;20.30;99.90;;;;;;5292501;28;20020;-75
2022/08/26 22:16:57;;;;;;;12.18;5.63;;;20.30;99.90;;;;;;5292151;28;20019;-75
2022/08/26 22:19:30;;;;;;;14.68;5.78;;;20.40;99.90;;;;;;5274138;28;20073;-76
2022/08/26 22:22:02;;;;;;;13.63;4.55;;;20.50;99.90;;;;;;5292294;28;20024;-74
2022/08/26 22:24:34;;;;;;;17.58;5.30;;;20.30;99.90;;;;;;5292154;28;20036;-76
2022/08/26 22:27:04;;;;;;;16.45;5.90;;;20.20;99.90;;;;;;5292234;28;20024;-74
2022/08/26 22:29:36;;;;;;;14.82;5.20;;;20.20;99.90;;;;;;5292308;28;20028;-73
2022/08/26 22:32:07;;;;;;;14.40;5.10;;;20.10;99.90;;;;;;5292060;28;20089;-73
2022/08/26 22:34:38;;;;;;;13.68;6.25;;;20.10;99.90;;;;;;5291468;28;20030;-76
2022/08/26 22:37:09;;;;;;;15.75;6.13;;;20.00;99.90;;;;;;5292065;28;20023;-75
2022/08/26 22:39:40;;;;;;;18.23;5.78;;;20.20;99.90;;;;;;5291861;28;20027;-76
2022/08/26 22:42:11;;;;;;;12.80;5.38;;;20.20;99.90;;;;;;5291999;28;20040;-73
2022/08/26 22:44:42;;;;;;;22.35;6.57;;;20.00;99.90;;;;;;5291687;28;20370;-76
2022/08/26 22:47:13;;;;;;;13.98;5.72;;;19.90;99.90;;;;;;5291539;28;20028;-75
2022/08/26 22:49:44;;;;;;;15.27;5.80;;;19.90;99.90;;;;;;5291543;28;20020;-75
2022/08/26 22:52:15;;;;;;;17.13;4.97;;;20.00;99.90;;;;;;5291831;28;20735;-73
2022/08/26 22:54:46;;;;;;;18.00;5.82;;;20.10;99.90;;;;;;5291784;28;20052;-75
2022/08/26 22:57:17;;;;;;;14.65;6.00;;;20.30;99.90;;;;;;5291563;28;20467;-74
2022/08/26 22:59:48;;;;;;;16.65;5.85;;;20.10;99.90;;;;;;5290994;28;20022;-73
2022/08/26 23:02:19;;;;;;;15.70;5.53;;;20.00;99.90;;;;;;5268710;28;20144;-75